Time;durP1;ratioP1;P1;durP2;ratioP2;P2;SDS_P1;SDS_P2;PMS_P1;PMS_P2;Temp;Humidity;BMP_temperature;BMP_pressure;BME280_temperature;BME280_humidity;BME280_pressure;Samples;Min_cycle;Max_cycle;Signal;HPM_P1;HPM_P2
2022/05/31 00:00:46;;;;;;;7.97;5.20;;;9.50;99.90;;;;;;5053573;28;20064;-64
2022/05/31 00:03:12;;;;;;;6.95;4.97;;;9.50;99.90;;;;;;5030784;28;20555;-64
2022/05/31 00:05:37;;;;;;;8.65;5.30;;;9.50;99.90;;;;;;5053610;28;20071;-64
2022/05/31 00:08:04;;;;;;;10.30;5.30;;;9.40;99.90;;;;;;5054077;28;20064;-64
2022/05/31 00:10:29;;;;;;;9.48;4.93;;;9.30;99.90;;;;;;5045770;28;20102;-64
2022/05/31 00:12:55;;;;;;;9.90;5.10;;;9.30;99.90;;;;;;5049041;28;20497;-64
2022/05/31 00:15:21;;;;;;;7.47;5.15;;;9.40;99.90;;;;;;5053567;28;20496;-64
2022/05/31 00:17:46;;;;;;;10.10;5.22;;;9.40;99.90;;;;;;5050412;28;20040;-64
2022/05/31 00:20:13;;;;;;;6.00;5.28;;;9.40;99.90;;;;;;5048217;28;20116;-64
2022/05/31 00:22:40;;;;;;;7.18;5.10;;;9.40;99.90;;;;;;5052787;28;20033;-64
2022/05/31 00:25:07;;;;;;;8.43;5.20;;;9.40;99.90;;;;;;5053326;28;20040;-64
2022/05/31 00:27:33;;;;;;;8.55;5.22;;;9.30;99.90;;;;;;5049674;28;20044;-64
2022/05/31 00:29:59;;;;;;;5.85;5.20;;;9.30;99.90;;;;;;5052376;28;20051;-64
2022/05/31 00:32:27;;;;;;;7.88;5.25;;;9.30;99.90;;;;;;5053085;28;20136;-64
2022/05/31 00:34:56;;;;;;;6.20;5.00;;;9.30;99.90;;;;;;5045129;28;20112;-64
2022/05/31 00:37:22;;;;;;;6.00;4.78;;;9.20;99.90;;;;;;5035921;28;20112;-64
2022/05/31 00:39:48;;;;;;;7.10;5.28;;;9.10;99.90;;;;;;5053025;28;20138;-64
2022/05/31 00:42:20;;;;;;;8.00;5.30;;;9.10;99.90;;;;;;5052960;28;20041;-64
2022/05/31 00:44:46;;;;;;;6.18;4.68;;;9.00;99.90;;;;;;5044746;28;20057;-64
2022/05/31 00:47:31;;;;;;;6.75;4.80;;;8.90;99.90;;;;;;5052425;28;20150;-64
2022/05/31 00:50:01;;;;;;;6.65;5.25;;;8.90;99.90;;;;;;5053156;28;20055;-64
2022/05/31 00:52:33;;;;;;;8.70;5.25;;;8.70;99.90;;;;;;5041923;28;20080;-64
2022/05/31 00:55:06;;;;;;;6.20;4.95;;;8.70;99.90;;;;;;5050444;28;20126;-64
2022/05/31 00:57:34;;;;;;;6.38;5.28;;;8.60;99.90;;;;;;5052902;28;20095;-64
2022/05/31 01:00:12;;;;;;;7.65;5.00;;;8.60;99.90;;;;;;5052970;28;20423;-64
2022/05/31 01:02:40;;;;;;;6.38;5.30;;;8.50;99.90;;;;;;5034060;28;20045;-64
2022/05/31 01:05:08;;;;;;;9.15;5.47;;;8.40;99.90;;;;;;5048706;28;20044;-64
2022/05/31 01:07:33;;;;;;;9.80;5.70;;;8.40;99.90;;;;;;5030869;28;20042;-64
2022/05/31 01:09:59;;;;;;;7.53;5.32;;;8.30;99.90;;;;;;5039998;28;20095;-64
2022/05/31 01:15:23;;;;;;;5.80;4.75;;;8.30;99.90;;;;;;5665851;22;20049;-64
2022/05/31 01:17:49;;;;;;;6.40;4.95;;;8.20;99.90;;;;;;5013379;28;20037;-61
2022/05/31 01:20:21;;;;;;;5.15;4.00;;;8.10;99.90;;;;;;5030467;28;20491;-61
2022/05/31 01:23:00;;;;;;;;;;;8.00;99.90;;;;;;5052737;28;20060;-62
2022/05/31 01:25:48;;;;;;;7.10;4.72;;;8.00;99.90;;;;;;5021900;28;19921;-61
2022/05/31 01:28:44;;;;;;;8.52;5.50;;;7.90;99.90;;;;;;5022247;28;20037;-62
2022/05/31 01:31:40;;;;;;;5.65;4.60;;;8.00;99.90;;;;;;5032257;28;20049;-62
2022/05/31 01:34:11;;;;;;;5.72;4.72;;;8.00;99.90;;;;;;5004876;28;20390;-62
2022/05/31 01:36:47;;;;;;;6.97;4.77;;;8.00;99.90;;;;;;5008554;28;20049;-61
2022/05/31 01:39:47;;;;;;;7.03;4.60;;;7.90;99.90;;;;;;5114748;22;20284;-61
2022/05/31 01:42:29;;;;;;;5.78;4.80;;;7.90;99.90;;;;;;5017179;28;20058;-62
2022/05/31 01:45:05;;;;;;;6.35;4.70;;;7.90;99.90;;;;;;5003106;28;20089;-62
2022/05/31 01:47:30;;;;;;;5.50;4.45;;;7.90;99.90;;;;;;4993923;28;20042;-61
2022/05/31 01:49:57;;;;;;;6.15;4.75;;;7.90;99.90;;;;;;5012019;28;20525;-61
2022/05/31 01:52:23;;;;;;;6.43;4.88;;;7.90;99.90;;;;;;5013729;28;20040;-61
2022/05/31 01:54:51;;;;;;;6.20;4.80;;;7.80;99.90;;;;;;4987370;28;20161;-61
2022/05/31 01:57:17;;;;;;;8.85;5.00;;;7.80;99.90;;;;;;5011446;28;20038;-62
2022/05/31 01:59:49;;;;;;;7.32;5.35;;;7.90;99.90;;;;;;4997268;28;20044;-61
2022/05/31 02:02:16;;;;;;;7.13;5.63;;;7.90;99.90;;;;;;5008853;28;20077;-61
2022/05/31 02:04:42;;;;;;;6.57;4.60;;;8.00;99.90;;;;;;5012339;28;20038;-61
2022/05/31 02:07:15;;;;;;;5.15;4.47;;;8.00;99.90;;;;;;5001608;28;20438;-62
2022/05/31 02:09:43;;;;;;;5.82;4.82;;;8.00;99.90;;;;;;4987598;28;20068;-61
2022/05/31 02:12:10;;;;;;;5.72;4.55;;;8.00;99.90;;;;;;4993469;28;20037;-61
2022/05/31 02:14:36;;;;;;;5.75;4.78;;;8.00;99.90;;;;;;5010266;28;20133;-61
2022/05/31 02:17:02;;;;;;;5.10;4.50;;;8.00;99.90;;;;;;4993508;28;20117;-62
2022/05/31 02:19:28;;;;;;;7.03;5.50;;;8.10;99.90;;;;;;5010448;28;20553;-62
2022/05/31 02:21:58;;;;;;;7.53;5.50;;;8.10;99.90;;;;;;5008996;28;20202;-62
2022/05/31 02:24:25;;;;;;;7.30;5.38;;;8.20;99.90;;;;;;5008227;28;20482;-61
2022/05/31 02:26:52;;;;;;;7.43;5.45;;;8.30;99.90;;;;;;4993985;28;20041;-61
2022/05/31 02:29:21;;;;;;;5.70;5.00;;;8.40;99.90;;;;;;5011867;28;20042;-61
2022/05/31 02:31:47;;;;;;;7.50;5.43;;;8.40;99.90;;;;;;5002491;28;20047;-62
2022/05/31 02:34:16;;;;;;;7.55;6.10;;;8.40;99.90;;;;;;5583956;22;20053;-61
2022/05/31 02:36:42;;;;;;;8.05;6.53;;;8.50;99.90;;;;;;5013628;28;20061;-61
2022/05/31 02:39:08;;;;;;;7.93;6.18;;;8.60;99.90;;;;;;5028182;28;20095;-61
2022/05/31 02:41:34;;;;;;;7.15;6.07;;;8.60;99.90;;;;;;5021396;28;20124;-61
2022/05/31 02:43:59;;;;;;;8.60;6.50;;;8.70;99.90;;;;;;5031114;28;20551;-61
2022/05/31 02:46:26;;;;;;;10.55;6.82;;;8.70;99.90;;;;;;5031549;28;20042;-61
2022/05/31 02:48:52;;;;;;;7.85;6.32;;;8.80;99.90;;;;;;5020175;28;20151;-62
2022/05/31 02:51:18;;;;;;;8.43;5.78;;;8.80;99.90;;;;;;5028860;28;20052;-61
2022/05/31 02:53:44;;;;;;;8.57;6.90;;;8.80;99.90;;;;;;5035045;28;20038;-61
2022/05/31 02:56:09;;;;;;;9.15;6.40;;;8.80;99.90;;;;;;5044164;28;20549;-62
2022/05/31 02:58:35;;;;;;;8.82;7.00;;;8.80;99.90;;;;;;5034196;28;20029;-61
2022/05/31 03:01:01;;;;;;;10.32;7.05;;;8.80;99.90;;;;;;5016796;28;20509;-61
2022/05/31 03:03:27;;;;;;;9.27;6.57;;;8.90;99.90;;;;;;5017005;28;20520;-62
2022/05/31 03:05:53;;;;;;;9.02;7.50;;;8.90;99.90;;;;;;5211889;23;20054;-62
2022/05/31 03:08:19;;;;;;;9.50;6.97;;;8.90;99.90;;;;;;4993183;28;20117;-62
2022/05/31 03:10:52;;;;;;;8.73;6.82;;;8.90;99.90;;;;;;4990876;28;20037;-63
2022/05/31 03:13:22;;;;;;;7.90;6.90;;;9.00;99.90;;;;;;4985717;28;20042;-62
2022/05/31 03:15:48;;;;;;;8.55;6.15;;;9.00;99.90;;;;;;4975041;28;20035;-62
2022/05/31 03:18:19;;;;;;;9.07;7.15;;;9.00;99.90;;;;;;4955690;28;20476;-62
2022/05/31 03:20:48;;;;;;;7.43;6.37;;;9.00;99.90;;;;;;4973913;28;20418;-62
2022/05/31 03:23:29;;;;;;;8.38;6.55;;;9.00;99.90;;;;;;4972425;28;20063;-62
2022/05/31 03:25:57;;;;;;;9.45;6.97;;;9.00;99.90;;;;;;4975414;28;20130;-62
2022/05/31 03:28:24;;;;;;;8.93;7.03;;;9.00;99.90;;;;;;4971359;28;20066;-62
2022/05/31 03:30:50;;;;;;;8.77;7.10;;;9.00;99.90;;;;;;4973610;28;20098;-62
2022/05/31 03:33:16;;;;;;;8.90;6.80;;;9.00;99.90;;;;;;4971987;28;20031;-62
2022/05/31 03:35:42;;;;;;;9.57;6.97;;;9.10;99.90;;;;;;4974800;28;20638;-62
2022/05/31 03:43:18;;;;;;;8.32;6.85;;;9.10;99.90;;;;;;5486175;22;20069;-61
2022/05/31 03:48:20;;;;;;;9.55;6.93;;;9.10;99.90;;;;;;6052716;22;20059;-62
2022/05/31 03:50:45;;;;;;;8.48;6.75;;;9.10;99.90;;;;;;5022965;28;20073;-62
2022/05/31 03:53:14;;;;;;;10.23;7.10;;;9.10;99.90;;;;;;5007472;28;20068;-62
2022/05/31 03:55:42;;;;;;;8.50;6.88;;;9.10;99.90;;;;;;5021901;28;20553;-63
2022/05/31 03:58:08;;;;;;;8.90;7.28;;;9.10;99.90;;;;;;5021699;28;20088;-62
2022/05/31 04:00:35;;;;;;;8.52;7.00;;;9.10;99.90;;;;;;5023584;28;20045;-61
2022/05/31 04:08:50;;;;;;;10.23;6.97;;;9.10;99.90;;;;;;5915195;22;20061;-62
2022/05/31 04:11:16;;;;;;;8.10;6.95;;;9.20;99.90;;;;;;5009731;28;20042;-61
2022/05/31 04:13:42;;;;;;;13.02;7.85;;;9.20;99.90;;;;;;5004226;28;20054;-61
2022/05/31 04:16:10;;;;;;;11.45;8.02;;;9.20;99.90;;;;;;4998502;28;20049;-61
2022/05/31 04:18:37;;;;;;;12.07;8.13;;;9.20;99.90;;;;;;5004392;28;20038;-61
2022/05/31 04:26:27;;;;;;;11.68;8.68;;;9.40;99.90;;;;;;5049836;28;20497;-61
2022/05/31 04:28:54;;;;;;;15.38;8.57;;;9.50;99.90;;;;;;5041229;28;20551;-61
2022/05/31 04:31:20;;;;;;;11.75;8.43;;;9.50;99.90;;;;;;5035526;28;20172;-62
2022/05/31 04:33:45;;;;;;;12.07;8.35;;;9.50;99.90;;;;;;5036470;28;20148;-61
2022/05/31 04:36:14;;;;;;;10.63;7.78;;;9.60;99.90;;;;;;5015418;28;20049;-61
2022/05/31 04:38:40;;;;;;;11.57;8.57;;;9.60;99.90;;;;;;5068449;23;20044;-63
2022/05/31 04:41:07;;;;;;;13.82;8.30;;;9.60;99.90;;;;;;5050941;28;20565;-64
2022/05/31 04:43:33;;;;;;;10.90;8.35;;;9.60;99.90;;;;;;5050850;28;20075;-64
2022/05/31 04:46:16;;;;;;;10.32;8.05;;;9.70;99.90;;;;;;5041133;28;20095;-64
2022/05/31 04:48:42;;;;;;;13.10;8.23;;;9.70;99.90;;;;;;5027756;28;20698;-64
2022/05/31 04:51:08;;;;;;;10.65;7.90;;;9.70;99.90;;;;;;5032622;28;20073;-64
2022/05/31 04:53:34;;;;;;;14.02;8.30;;;9.80;99.90;;;;;;5028894;28;20038;-64
2022/05/31 04:56:05;;;;;;;16.77;9.15;;;9.90;99.90;;;;;;5021525;28;20042;-64
2022/05/31 04:58:31;;;;;;;17.92;8.45;;;9.90;99.90;;;;;;5030527;28;20033;-64
2022/05/31 05:00:57;;;;;;;10.20;7.88;;;9.90;99.90;;;;;;5029342;28;20043;-64
2022/05/31 05:03:22;;;;;;;10.68;8.02;;;10.00;99.90;;;;;;5026967;28;20095;-64
2022/05/31 05:05:48;;;;;;;9.35;7.93;;;10.00;99.90;;;;;;5031652;28;20623;-64
2022/05/31 05:08:13;;;;;;;10.07;7.82;;;10.00;99.90;;;;;;5032994;28;20042;-64
2022/05/31 05:10:46;;;;;;;10.80;8.18;;;10.10;99.90;;;;;;5020267;28;20441;-64
2022/05/31 05:13:12;;;;;;;13.85;8.20;;;10.10;99.90;;;;;;5036740;28;20037;-63
2022/05/31 05:15:41;;;;;;;10.10;8.57;;;10.10;99.90;;;;;;5032295;28;20065;-64
2022/05/31 05:18:07;;;;;;;10.43;8.27;;;10.20;99.90;;;;;;5028514;28;20367;-64
2022/05/31 05:20:36;;;;;;;9.50;7.75;;;10.30;99.90;;;;;;5030991;28;20567;-64
2022/05/31 05:23:05;;;;;;;9.63;7.97;;;10.30;99.90;;;;;;5028689;28;20444;-64
2022/05/31 05:25:31;;;;;;;10.15;7.82;;;10.40;99.90;;;;;;5031589;28;20029;-64
2022/05/31 05:27:57;;;;;;;11.73;8.82;;;10.50;99.90;;;;;;5030446;28;20561;-64
2022/05/31 05:30:41;;;;;;;9.15;8.13;;;10.60;99.90;;;;;;5025250;28;20566;-64
2022/05/31 05:33:09;;;;;;;11.43;7.90;;;10.60;99.90;;;;;;5026300;28;20409;-64
2022/05/31 05:35:35;;;;;;;11.05;7.90;;;10.70;99.90;;;;;;5022915;28;20038;-64
2022/05/31 05:38:01;;;;;;;13.65;8.38;;;10.70;99.90;;;;;;5026189;28;20033;-64
2022/05/31 05:40:26;;;;;;;10.65;8.40;;;10.80;99.90;;;;;;5029974;28;20094;-64
2022/05/31 05:42:52;;;;;;;12.75;8.45;;;10.90;99.90;;;;;;5024896;28;20037;-64
2022/05/31 05:45:18;;;;;;;11.23;8.43;;;10.90;99.90;;;;;;5021035;28;20115;-64
2022/05/31 05:47:44;;;;;;;12.65;8.88;;;11.00;99.90;;;;;;5031836;28;20041;-64
2022/05/31 05:50:10;;;;;;;10.60;8.23;;;11.10;99.90;;;;;;5031943;28;20044;-64
2022/05/31 05:52:36;;;;;;;12.95;8.18;;;11.20;99.90;;;;;;5014784;28;20489;-63
2022/05/31 05:55:04;;;;;;;12.10;8.85;;;11.20;99.90;;;;;;5026714;28;20394;-64
2022/05/31 05:57:30;;;;;;;11.43;8.82;;;11.30;99.90;;;;;;5028178;28;20041;-64
2022/05/31 05:59:57;;;;;;;13.40;9.38;;;11.30;99.90;;;;;;5020361;28;21253;-64
2022/05/31 06:02:29;;;;;;;14.02;8.90;;;11.50;99.90;;;;;;5026504;28;20042;-64
2022/05/31 06:05:07;;;;;;;11.68;8.95;;;11.60;99.90;;;;;;5029863;28;20049;-64
2022/05/31 06:08:05;;;;;;;12.50;9.07;;;11.60;99.90;;;;;;5027873;28;20053;-64
2022/05/31 06:10:44;;;;;;;14.15;8.65;;;11.70;99.90;;;;;;5007815;28;20513;-63
2022/05/31 06:13:21;;;;;;;13.38;9.10;;;11.80;99.90;;;;;;5031284;28;20409;-63
2022/05/31 06:15:54;;;;;;;14.13;8.63;;;12.00;99.90;;;;;;5028949;28;20482;-63
2022/05/31 06:18:24;;;;;;;11.15;8.63;;;12.10;99.90;;;;;;5030454;28;20034;-63
2022/05/31 06:20:55;;;;;;;13.48;8.85;;;12.20;99.90;;;;;;5031213;28;20052;-63
2022/05/31 06:23:20;;;;;;;11.30;8.30;;;12.30;99.90;;;;;;5031374;28;20037;-63
2022/05/31 06:25:47;;;;;;;11.77;8.13;;;12.50;99.90;;;;;;5019199;28;20509;-63
2022/05/31 06:28:12;;;;;;;11.27;8.48;;;12.60;99.90;;;;;;5028294;28;20092;-63
2022/05/31 06:30:38;;;;;;;9.93;7.45;;;12.60;99.90;;;;;;5037042;28;20053;-64
2022/05/31 06:33:05;;;;;;;11.02;8.20;;;12.70;99.90;;;;;;5031610;28;20041;-64
2022/05/31 06:35:30;;;;;;;12.05;7.88;;;12.70;99.90;;;;;;5016648;28;20030;-63
2022/05/31 06:37:56;;;;;;;10.70;7.43;;;12.70;99.90;;;;;;5030667;28;20052;-63
2022/05/31 06:40:22;;;;;;;8.82;7.10;;;12.70;99.90;;;;;;5039642;28;20055;-63
2022/05/31 06:42:49;;;;;;;10.35;7.18;;;12.80;99.90;;;;;;5018924;28;20049;-63
2022/05/31 06:45:14;;;;;;;8.40;7.38;;;12.80;99.90;;;;;;5036909;28;20047;-63
2022/05/31 06:47:40;;;;;;;12.63;7.53;;;12.80;99.90;;;;;;5050871;28;20049;-64
2022/05/31 06:50:06;;;;;;;9.63;7.25;;;12.90;99.90;;;;;;5029883;28;20029;-64
2022/05/31 06:58:01;;;;;;;9.45;6.78;;;13.10;99.90;;;;;;5018073;28;20497;-64
2022/05/31 07:00:26;;;;;;;14.45;7.40;;;13.20;99.90;;;;;;5021359;28;20034;-64
2022/05/31 07:02:54;;;;;;;10.85;7.05;;;13.30;99.90;;;;;;5039296;28;20499;-64
2022/05/31 07:05:20;;;;;;;11.60;7.28;;;13.40;99.90;;;;;;5048226;28;20108;-66
2022/05/31 07:07:46;;;;;;;9.43;6.72;;;13.60;99.90;;;;;;5020065;28;20172;-63
2022/05/31 07:10:13;;;;;;;13.27;7.20;;;13.70;99.90;;;;;;5030733;28;20033;-64
2022/05/31 07:12:40;;;;;;;7.97;6.97;;;13.70;99.90;;;;;;5034754;28;20139;-64
2022/05/31 07:15:06;;;;;;;11.95;6.97;;;13.90;99.90;;;;;;5031314;28;20041;-64
2022/05/31 07:17:32;;;;;;;10.23;7.25;;;13.80;99.90;;;;;;5022929;28;20037;-66
2022/05/31 07:19:58;;;;;;;9.18;7.13;;;13.70;99.90;;;;;;5031269;28;20041;-61
2022/05/31 07:22:24;;;;;;;9.02;6.88;;;13.80;99.90;;;;;;5024705;28;20501;-61
2022/05/31 07:24:49;;;;;;;10.93;7.32;;;13.80;99.90;;;;;;5027865;28;20536;-62
2022/05/31 07:27:15;;;;;;;8.75;6.38;;;13.90;99.90;;;;;;5036810;28;20060;-63
2022/05/31 07:29:41;;;;;;;11.30;6.90;;;14.00;99.90;;;;;;5030937;28;20072;-62
2022/05/31 07:32:07;;;;;;;7.53;6.22;;;14.10;99.90;;;;;;5017953;28;20045;-63
2022/05/31 07:34:33;;;;;;;9.95;6.47;;;14.20;99.90;;;;;;5032187;28;20030;-63
2022/05/31 07:36:59;;;;;;;8.88;6.38;;;14.20;99.90;;;;;;5034132;28;22236;-63
2022/05/31 07:39:25;;;;;;;9.80;6.38;;;14.30;99.90;;;;;;5033062;28;20493;-63
2022/05/31 07:41:52;;;;;;;11.52;6.60;;;14.30;99.90;;;;;;5031480;28;20052;-63
2022/05/31 07:44:18;;;;;;;9.73;6.13;;;14.40;99.90;;;;;;5019693;28;20052;-63
2022/05/31 07:46:43;;;;;;;10.25;6.43;;;14.50;99.90;;;;;;5030227;28;20088;-63
2022/05/31 07:49:09;;;;;;;13.15;6.18;;;14.60;99.90;;;;;;5025403;28;20502;-63
2022/05/31 07:51:35;;;;;;;9.00;6.35;;;14.60;99.90;;;;;;5032581;28;20032;-63
2022/05/31 07:54:00;;;;;;;9.40;6.40;;;14.70;99.90;;;;;;5038654;28;20587;-63
2022/05/31 07:56:28;;;;;;;13.07;6.28;;;14.80;99.90;;;;;;5030370;28;20075;-63
2022/05/31 07:58:54;;;;;;;10.02;5.90;;;14.90;99.90;;;;;;5033265;28;20393;-63
2022/05/31 08:01:22;;;;;;;9.63;6.38;;;15.00;99.90;;;;;;5033498;28;20041;-63
2022/05/31 08:03:49;;;;;;;11.52;6.50;;;15.00;99.90;;;;;;5023713;28;20498;-63
2022/05/31 08:06:22;;;;;;;9.88;6.88;;;15.10;99.90;;;;;;5018123;28;20053;-63
2022/05/31 08:08:49;;;;;;;12.30;7.20;;;15.10;99.90;;;;;;5032165;28;20041;-63
2022/05/31 08:11:19;;;;;;;15.05;7.88;;;15.10;99.90;;;;;;5033549;28;20041;-63
2022/05/31 08:13:46;;;;;;;14.97;8.10;;;15.30;99.90;;;;;;5030123;28;20444;-63
2022/05/31 08:16:13;;;;;;;16.25;9.40;;;15.40;99.90;;;;;;5032642;28;20397;-62
2022/05/31 08:18:42;;;;;;;14.07;8.68;;;15.50;99.90;;;;;;5037659;28;20041;-63
2022/05/31 08:24:30;;;;;;;11.75;8.25;;;15.60;99.90;;;;;;5031232;28;20551;-63
2022/05/31 08:26:55;;;;;;;12.80;8.73;;;15.70;99.90;;;;;;5033330;28;20046;-63
2022/05/31 08:29:23;;;;;;;11.75;7.40;;;15.80;99.90;;;;;;5030191;28;20033;-63
2022/05/31 08:31:48;;;;;;;11.23;8.82;;;15.90;99.90;;;;;;5027169;28;20049;-63
2022/05/31 08:34:14;;;;;;;13.82;9.02;;;16.00;99.90;;;;;;5033620;28;20037;-63
2022/05/31 08:36:40;;;;;;;12.88;8.40;;;16.10;99.90;;;;;;5030981;28;20440;-63
2022/05/31 08:39:06;;;;;;;11.60;8.90;;;16.20;99.90;;;;;;5020168;28;20558;-63
2022/05/31 08:41:38;;;;;;;13.15;8.95;;;16.30;99.90;;;;;;5028363;28;20042;-63
2022/05/31 08:44:24;;;;;;;12.10;8.85;;;16.40;99.90;;;;;;5033086;28;20523;-63
2022/05/31 08:47:02;;;;;;;12.43;8.50;;;16.50;99.90;;;;;;5024671;28;20049;-63
2022/05/31 08:52:39;;;;;;;12.65;8.98;;;16.60;98.90;;;;;;5032553;28;20061;-63
2022/05/31 08:58:07;;;;;;;12.82;8.68;;;16.80;99.90;;;;;;5021497;28;20121;-63
2022/05/31 09:00:38;;;;;;;12.13;9.30;;;17.00;99.90;;;;;;5032056;28;20497;-63
2022/05/31 09:03:14;;;;;;;13.25;8.85;;;17.10;99.90;;;;;;5028115;28;20032;-63
2022/05/31 09:05:48;;;;;;;11.52;8.40;;;17.20;97.90;;;;;;5024841;28;20493;-63
2022/05/31 09:08:26;;;;;;;12.00;9.32;;;17.20;98.90;;;;;;5032551;28;20049;-63
2022/05/31 09:10:56;;;;;;;13.25;8.80;;;17.30;99.90;;;;;;5030114;28;20529;-63
2022/05/31 09:13:37;;;;;;;14.27;8.80;;;17.40;99.50;;;;;;5022704;28;20046;-63
2022/05/31 09:16:18;;;;;;;14.30;8.95;;;17.70;99.10;;;;;;5032523;28;20041;-63
2022/05/31 09:18:51;;;;;;;11.98;8.20;;;17.90;97.90;;;;;;5032791;28;20175;-63
2022/05/31 09:21:26;;;;;;;10.70;7.28;;;18.30;97.70;;;;;;5026044;28;20042;-63
2022/05/31 09:23:55;;;;;;;10.93;7.63;;;18.60;99.40;;;;;;5032482;28;20106;-63
2022/05/31 09:26:42;;;;;;;11.85;8.73;;;18.60;97.70;;;;;;5032451;28;20417;-63
2022/05/31 09:29:21;;;;;;;9.82;7.82;;;18.60;95.00;;;;;;5019689;28;20081;-63
2022/05/31 09:32:23;;;;;;;13.63;7.57;;;18.70;96.20;;;;;;5030248;28;20049;-63
2022/05/31 09:35:42;;;;;;;8.18;5.30;;;18.60;89.20;;;;;;5043370;28;20454;-63
2022/05/31 09:38:14;;;;;;;9.68;6.90;;;18.70;86.80;;;;;;4982259;28;20042;-63
2022/05/31 09:40:50;;;;;;;12.75;6.93;;;18.80;94.00;;;;;;5022644;28;20276;-63
2022/05/31 09:43:35;;;;;;;9.48;6.97;;;18.80;93.60;;;;;;5017660;28;20042;-63
2022/05/31 09:46:08;;;;;;;11.93;5.25;;;18.70;78.80;;;;;;5020288;28;20052;-63
2022/05/31 09:48:46;;;;;;;7.97;5.30;;;18.60;88.60;;;;;;5023402;28;20043;-63
2022/05/31 09:51:36;;;;;;;10.32;4.75;;;18.60;92.70;;;;;;5031544;28;20107;-63
2022/05/31 09:57:06;;;;;;;10.52;5.75;;;18.70;94.90;;;;;;5016273;28;20042;-63
2022/05/31 09:59:34;;;;;;;10.70;6.18;;;18.70;93.90;;;;;;5027718;28;20400;-63
2022/05/31 10:02:24;;;;;;;7.38;4.60;;;18.60;94.80;;;;;;5030521;28;20072;-63
2022/05/31 10:05:11;;;;;;;5.93;4.70;;;18.60;77.70;;;;;;5025563;28;20045;-63
2022/05/31 10:07:38;;;;;;;9.10;5.40;;;18.50;94.00;;;;;;5031391;28;20045;-63
2022/05/31 10:10:35;;;;;;;8.23;4.93;;;18.60;94.10;;;;;;5028143;28;20053;-63
2022/05/31 10:13:04;;;;;;;9.18;4.43;;;18.80;80.40;;;;;;5001463;28;20057;-63
2022/05/31 10:15:41;;;;;;;5.35;3.80;;;18.90;94.10;;;;;;5021701;28;20044;-63
2022/05/31 10:18:10;;;;;;;8.15;4.40;;;18.90;93.00;;;;;;5011448;28;20063;-63
2022/05/31 10:20:36;;;;;;;7.20;3.72;;;18.90;91.30;;;;;;5016810;28;20034;-63
2022/05/31 10:23:15;;;;;;;7.47;3.90;;;19.10;93.50;;;;;;5018833;28;20044;-63
2022/05/31 10:25:45;;;;;;;8.02;5.80;;;19.10;86.30;;;;;;5017250;28;20033;-63
2022/05/31 10:28:35;;;;;;;8.27;5.22;;;19.20;72.60;;;;;;5030355;28;20042;-63
2022/05/31 10:31:33;;;;;;;6.60;4.63;;;19.30;81.10;;;;;;5021696;28;20042;-63
2022/05/31 10:34:01;;;;;;;8.52;4.32;;;19.60;86.60;;;;;;5018985;28;20091;-63
2022/05/31 10:36:51;;;;;;;5.75;3.95;;;19.70;89.00;;;;;;5021542;28;20037;-63
2022/05/31 10:39:22;;;;;;;5.43;3.40;;;19.80;58.90;;;;;;5112772;22;20123;-63
2022/05/31 10:41:51;;;;;;;5.40;3.30;;;19.80;81.90;;;;;;5070467;28;20044;-63
2022/05/31 10:44:33;;;;;;;5.45;3.65;;;19.60;78.70;;;;;;5063595;28;20074;-63
2022/05/31 10:47:14;;;;;;;7.03;4.75;;;19.50;64.40;;;;;;5068221;28;20094;-63
2022/05/31 10:49:42;;;;;;;7.55;4.80;;;19.40;68.50;;;;;;5062755;28;20041;-63
2022/05/31 10:52:26;;;;;;;8.80;4.88;;;19.40;83.00;;;;;;5037790;28;20051;-63
2022/05/31 10:55:22;;;;;;;10.50;6.07;;;19.50;72.40;;;;;;5038078;28;20044;-63
2022/05/31 10:57:57;;;;;;;9.35;5.70;;;19.50;72.70;;;;;;5044902;28;20029;-63
2022/05/31 11:00:38;;;;;;;6.70;5.00;;;19.50;73.70;;;;;;5048855;28;20046;-62
2022/05/31 11:03:29;;;;;;;8.10;4.82;;;19.40;66.10;;;;;;5035857;28;20045;-63
2022/05/31 11:06:30;;;;;;;10.55;5.45;;;19.40;67.30;;;;;;5040331;28;20090;-63
2022/05/31 11:12:03;;;;;;;11.20;6.50;;;19.40;78.60;;;;;;5050543;28;19920;-62
2022/05/31 11:14:53;;;;;;;11.23;6.82;;;19.50;85.50;;;;;;5054884;28;20108;-63
2022/05/31 11:17:55;;;;;;;10.20;6.72;;;19.70;85.30;;;;;;5048190;28;20048;-63
2022/05/31 11:20:27;;;;;;;10.27;7.53;;;19.50;68.70;;;;;;5060512;28;20033;-62
2022/05/31 11:23:10;;;;;;;10.50;7.22;;;19.40;85.60;;;;;;5046495;28;20033;-63
2022/05/31 11:25:57;;;;;;;10.45;7.78;;;19.70;82.20;;;;;;5045726;28;20044;-62
2022/05/31 11:29:06;;;;;;;11.73;7.20;;;19.60;73.30;;;;;;5052056;28;20385;-63
2022/05/31 11:31:40;;;;;;;9.90;7.45;;;19.80;81.50;;;;;;5054597;28;20047;-63
2022/05/31 11:34:31;;;;;;;10.20;7.60;;;19.80;86.60;;;;;;5041804;28;20112;-63
2022/05/31 11:37:09;;;;;;;9.95;7.72;;;20.10;83.10;;;;;;5042150;28;20041;-63
2022/05/31 11:39:47;;;;;;;13.48;9.00;;;20.00;86.10;;;;;;5050729;28;20493;-62
2022/05/31 11:42:34;;;;;;;9.88;8.30;;;20.00;90.60;;;;;;5045500;28;20033;-63
2022/05/31 11:45:03;;;;;;;12.32;8.90;;;19.80;76.70;;;;;;5053669;28;20053;-62
2022/05/31 11:47:37;;;;;;;10.43;8.48;;;19.70;86.00;;;;;;5060568;28;20044;-62
2022/05/31 11:50:14;;;;;;;9.70;8.32;;;19.90;86.80;;;;;;5065458;28;20500;-63
2022/05/31 11:53:03;;;;;;;10.82;8.18;;;20.10;87.10;;;;;;5045387;28;20084;-62
2022/05/31 11:55:46;;;;;;;14.68;7.25;;;20.40;88.00;;;;;;5036442;28;20047;-63
2022/05/31 11:58:26;;;;;;;9.70;7.80;;;20.50;87.20;;;;;;5049511;28;20048;-63
2022/05/31 12:01:22;;;;;;;11.73;8.90;;;20.60;72.00;;;;;;5048434;28;20037;-63
2022/05/31 12:04:17;;;;;;;12.52;7.43;;;20.50;79.80;;;;;;5047420;28;20045;-63
2022/05/31 12:06:48;;;;;;;11.73;7.25;;;20.50;72.70;;;;;;5057623;28;20416;-63
2022/05/31 12:09:14;;;;;;;10.23;7.60;;;20.20;80.70;;;;;;5040999;28;20037;-63
2022/05/31 12:11:49;;;;;;;13.00;8.45;;;19.50;82.60;;;;;;5050889;28;20041;-63
2022/05/31 12:14:17;;;;;;;13.02;9.00;;;19.70;92.70;;;;;;5028034;28;20041;-63
2022/05/31 12:16:43;;;;;;;9.75;7.68;;;20.00;93.20;;;;;;5043500;28;20430;-63
2022/05/31 12:19:15;;;;;;;9.80;7.88;;;19.80;90.20;;;;;;5048822;28;20143;-63
2022/05/31 12:21:50;;;;;;;9.85;8.30;;;19.40;89.80;;;;;;5053572;28;20128;-63
2022/05/31 12:24:21;;;;;;;12.02;8.60;;;19.30;87.50;;;;;;5049275;28;20086;-63
2022/05/31 12:27:04;;;;;;;10.63;8.57;;;19.80;92.90;;;;;;5043291;28;20134;-63
2022/05/31 12:29:32;;;;;;;10.27;7.80;;;20.60;88.10;;;;;;5048028;28;20123;-63
2022/05/31 12:32:29;;;;;;;10.30;7.07;;;20.90;92.00;;;;;;5042696;28;20436;-63
2022/05/31 12:34:56;;;;;;;8.65;7.10;;;20.80;73.20;;;;;;5053844;28;20044;-63
2022/05/31 12:37:22;;;;;;;9.32;7.15;;;20.80;83.20;;;;;;5054701;28;20128;-63
2022/05/31 12:39:50;;;;;;;9.05;7.25;;;20.50;75.90;;;;;;5053514;28;20112;-63
2022/05/31 12:42:16;;;;;;;8.90;7.47;;;20.20;76.40;;;;;;5042495;28;20117;-63
2022/05/31 12:44:44;;;;;;;10.93;8.05;;;20.50;78.10;;;;;;5055266;28;20115;-63
2022/05/31 12:47:18;;;;;;;14.15;7.82;;;20.60;77.40;;;;;;5063280;28;20258;-63
2022/05/31 12:49:52;;;;;;;9.90;7.22;;;20.90;69.00;;;;;;5053775;28;20499;-63
2022/05/31 12:54:53;;;;;;;11.35;7.00;;;21.70;72.00;;;;;;5052560;28;20033;-63
2022/05/31 12:58:26;;;;;;;10.70;7.75;;;22.10;73.80;;;;;;5051681;28;20037;-63
2022/05/31 13:00:42;;;;;;;9.77;7.30;;;22.40;65.10;;;;;;5043833;28;20443;-63
2022/05/31 13:03:33;;;;;;;8.52;6.82;;;22.70;59.60;;;;;;5051512;28;20489;-63
2022/05/31 13:06:14;;;;;;;9.27;6.97;;;22.10;57.40;;;;;;5038945;28;20039;-63
2022/05/31 13:08:49;;;;;;;;;;;21.70;62.90;;;;;;5050798;28;20111;-63
2022/05/31 13:20:44;;;;;;;;;;;20.60;62.70;;;;;;5062068;28;20041;-63
2022/05/31 13:23:37;;;;;;;8.77;6.60;;;20.20;66.60;;;;;;5027736;28;19916;-63
2022/05/31 13:26:12;;;;;;;10.25;6.18;;;19.90;61.90;;;;;;5068106;28;20522;-62
2022/05/31 13:28:50;;;;;;;7.20;5.30;;;19.80;63.90;;;;;;5069427;28;20402;-62
2022/05/31 13:31:19;;;;;;;7.13;5.53;;;19.50;64.90;;;;;;5047068;28;20400;-62
2022/05/31 13:33:45;;;;;;;9.18;5.43;;;19.40;68.30;;;;;;5051796;28;20037;-62
2022/05/31 13:36:12;;;;;;;7.30;5.55;;;19.30;67.40;;;;;;5052629;28;20352;-63
2022/05/31 13:38:43;;;;;;;8.60;5.90;;;19.30;69.20;;;;;;5040454;28;20037;-63
2022/05/31 13:41:12;;;;;;;9.95;6.05;;;19.20;68.10;;;;;;5047884;28;20501;-62
2022/05/31 13:43:47;;;;;;;7.38;5.60;;;19.10;65.40;;;;;;5048101;28;20049;-62
2022/05/31 13:46:38;;;;;;;9.13;5.35;;;19.00;64.90;;;;;;5046260;28;20051;-63
2022/05/31 13:49:27;;;;;;;10.10;5.60;;;18.90;68.50;;;;;;5051741;28;20048;-62
2022/05/31 13:51:59;;;;;;;8.63;5.47;;;18.80;68.00;;;;;;5047459;28;20075;-63
2022/05/31 13:54:28;;;;;;;9.52;5.80;;;18.80;72.10;;;;;;5055428;28;20037;-62
2022/05/31 13:56:59;;;;;;;6.90;5.55;;;18.70;69.50;;;;;;5046277;28;20037;-63
2022/05/31 13:59:33;;;;;;;6.70;5.13;;;18.70;73.50;;;;;;5050017;28;20453;-63
2022/05/31 14:02:01;;;;;;;7.85;5.07;;;18.80;72.10;;;;;;5051660;28;20075;-63
2022/05/31 14:04:36;;;;;;;7.50;5.20;;;18.90;72.40;;;;;;5048055;28;20090;-63
2022/05/31 14:07:04;;;;;;;7.85;5.10;;;19.10;65.60;;;;;;5051374;28;20083;-63